Terminal Aerodrome Forecast
Issued by NWS Wilmington, OH

Current Version | Previous Version | Text Only | Print | Product List | Glossary Off
Versions: 1 2 3 4 5 6 7 8 9 10 11 12 13 14 15 16 17 18 19 20 21 22

000
FTUS41 KILN 221400 AAA
TAFCMH
TAF AMD
KCMH 221431Z 2215/2312 35010KT P6SM OVC025
      TEMPO 2215/2217 BKN012
     FM221800 01008KT P6SM BKN035
     FM230000 02004KT P6SM SCT035=

USA.gov is the U.S. government's official web portal to all federal, state and local government web resources and services.